Yamato Maru — JD2408 — position and weather

sailwx.info

Track history (hours):
 
Tides and Currents Weather Stations Pressure Air Temp Water Temp Dewpoint Dewpoint Depression Visibility Wind Speed Wind Dir Waves Ship Positions

Yamato Maru

Last reported at 2018-Feb-23 16:30 UTC. Time now 2018-Feb-23 20:25 UTC.
Position N 34°33' E 138°22'.

Length 72 m; draft 4.8 m.

Type: Ship. MMSI: 431000080.

Date/timePositionNaut miles runAvg speedWind from/ knotsBaromVisibWave heightAir tempDewpointWater temp
2018-Feb-23 16:30N 34°33' E 138°22'32411.5
2018-Feb-22 12:17N 33°13' E 132°04'813.1
2018-Feb-22 11:42N 33°19' E 131°58'313.5
2018-Feb-22 11:30N 33°21' E 131°56'712.8
2018-Feb-22 10:59N 33°26' E 131°51'713.5
2018-Feb-22 10:30N 33°32' E 131°49'713.7
2018-Feb-22 10:00N 33°38' E 131°44'713.7
2018-Feb-22 09:30N 33°42' E 131°38'714.0
2018-Feb-22 09:00N 33°45' E 131°30'713.9
2018-Feb-22 08:30N 33°48' E 131°22'713.9
2018-Feb-22 08:01N 33°50' E 131°15'713.9
2018-Feb-22 07:30N 33°54' E 131°07'713.5
2018-Feb-22 07:00N 33°58' E 131°01'510.7
2018-Feb-22 06:30N 33°55' E 130°56'5 9.2
2018-Feb-22 06:00N 33°57' E 130°51'612.8
2018-Feb-22 05:30N 33°58' E 130°43'713.4
2018-Feb-22 05:01N 33°57' E 130°35'612.5
2018-Feb-22 04:30N 33°55' E 130°28'712.9
2018-Feb-22 03:59N 33°49' E 130°24'612.6
2018-Feb-22 03:30N 33°45' E 130°19'510.6
2018-Feb-22 03:00N 33°39' E 130°18'511.0
2018-Feb-22 02:30N 33°36' E 130°23'0 0.3
2018-Feb-22 02:00N 33°36' E 130°23'0 0.0
2018-Feb-22 01:30N 33°36' E 130°23'0 0.0
2018-Feb-22 01:00N 33°36' E 130°23'0 0.0
2018-Feb-22 00:30N 33°36' E 130°23'0 0.0
2018-Feb-22 00:00N 33°36' E 130°23'0 0.0
2018-Feb-21 23:30N 33°36' E 130°23'1 2.1
2018-Feb-21 23:00N 33°37' E 130°23'1 2.2
2018-Feb-21 22:29N 33°37' E 130°21'0 0.0
2018-Feb-21 21:59N 33°37' E 130°21'0 0.0
2018-Feb-21 21:29N 33°37' E 130°21'0 0.0
2018-Feb-21 20:59N 33°37' E 130°21'0 0.0
2018-Feb-21 20:29N 33°37' E 130°21'0 0.0
2018-Feb-21 19:59N 33°37' E 130°21'0 0.0
2018-Feb-21 19:29N 33°37' E 130°21'0 0.0
2018-Feb-21 18:56N 33°37' E 130°21'0 0.0
2018-Feb-21 18:29N 33°37' E 130°21'0 0.0
2018-Feb-21 17:59N 33°37' E 130°21'0 0.1
2018-Feb-21 17:29N 33°37' E 130°21'0 0.0
2018-Feb-21 16:59N 33°37' E 130°21'0 0.0
2018-Feb-21 16:29N 33°37' E 130°21'0 0.0
2018-Feb-21 15:59N 33°37' E 130°21'0 0.1
2018-Feb-21 15:29N 33°37' E 130°21'0 0.0
2018-Feb-21 14:59N 33°37' E 130°21'0 0.1
2018-Feb-21 14:29N 33°37' E 130°21'0 0.0
2018-Feb-21 13:59N 33°37' E 130°21'0 0.1
2018-Feb-21 13:29N 33°37' E 130°21'3 5.8
2018-Feb-21 13:01N 33°39' E 130°19'510.2
2018-Feb-21 12:30N 33°43' E 130°16'712.5
2018-Feb-21 11:56N 33°49' E 130°20'512.7
2018-Feb-21 11:31N 33°54' E 130°23'611.3
2018-Feb-21 11:01N 33°57' E 130°29'612.2
2018-Feb-21 10:30N 33°57' E 130°36'612.0
2018-Feb-21 10:00N 33°58' E 130°43'611.8
2018-Feb-21 09:30N 33°58' E 130°50'5 9.8
2018-Feb-21 09:00N 33°55' E 130°55'4 8.5
2018-Feb-21 08:30N 33°58' E 130°58'5 9.7
2018-Feb-21 08:01N 33°57' E 131°04'611.2
2018-Feb-21 07:30N 33°54' E 131°09'611.3
2018-Feb-21 07:01N 33°52' E 131°15'611.5
2018-Feb-21 06:30N 33°49' E 131°22'611.6
2018-Feb-21 06:01N 33°47' E 131°28'611.5
2018-Feb-21 05:30N 33°44' E 131°34'510.8
2018-Feb-21 05:00N 33°41' E 131°40'611.1
2018-Feb-21 04:26N 33°37' E 131°45'511.0
2018-Feb-21 04:00N 33°33' E 131°47'1112.2
2018-Feb-21 03:07N 33°22' E 131°43'212.4
2018-Feb-21 03:00N 33°21' E 131°43'5 1.5
2018-Feb-20 23:57N 33°16' E 131°41'4 7.5
2018-Feb-20 23:27N 33°20' E 131°42'4 8.0
2018-Feb-20 23:00N 33°23' E 131°43'0 0.0
2018-Feb-20 21:00N 33°23' E 131°43'0 0.0
2018-Feb-20 20:18N 33°23' E 131°43'0 0.0
2018-Feb-20 19:54N 33°23' E 131°43'0 0.0
2018-Feb-20 19:18N 33°23' E 131°43'0 0.0
2018-Feb-20 19:00N 33°23' E 131°43'0 0.0
2018-Feb-20 18:30N 33°23' E 131°43'0 0.0
2018-Feb-20 16:39N 33°23' E 131°43'0 2.4
2018-Feb-20 16:28N 33°24' E 131°44'712.6
2018-Feb-20 15:57N 33°30' E 131°47'613.3
2018-Feb-20 15:30N 33°35' E 131°47'713.8
2018-Feb-20 15:00N 33°40' E 131°41'713.3
2018-Feb-20 14:30N 33°43' E 131°34'612.8
2018-Feb-20 14:00N 33°46' E 131°27'613.0
2018-Feb-20 13:30N 33°49' E 131°20'612.6
2018-Feb-20 13:01N 33°51' E 131°13'612.6
2018-Feb-20 12:30N 33°54' E 131°06'612.7
2018-Feb-20 12:00N 33°58' E 131°00'613.0
2018-Feb-20 11:30N 33°54' E 130°55'613.0
2018-Feb-20 11:00N 33°58' E 130°48'713.1
2018-Feb-20 10:30N 33°57' E 130°40'713.2
2018-Feb-20 10:00N 33°56' E 130°32'510.6
2018-Feb-20 09:30N 33°53' E 130°27'613.0
2018-Feb-20 09:00N 33°49' E 130°21'713.0
2018-Feb-20 08:30N 33°44' E 130°15'18 0.6
2018-Feb-19 03:31N 33°33' E 129°58'18 0.5
2018-Feb-17 13:42N 33°46' E 130°12'211.9
2018-Feb-17 13:30N 33°48' E 130°14'712.0
2018-Feb-17 12:56N 33°53' E 130°20'512.1
2018-Feb-17 12:29N 33°57' E 130°24'612.0
2018-Feb-17 12:01N 33°57' E 130°31'612.3
2018-Feb-17 11:31N 33°58' E 130°39'612.2
2018-Feb-17 11:01N 33°58' E 130°46'611.1
2018-Feb-17 10:31N 33°56' E 130°52'3 6.8
2018-Feb-17 10:01N 33°57' E 130°56'5 9.3
2018-Feb-17 09:31N 33°58' E 131°02'611.8
2018-Feb-17 09:01N 33°55' E 131°08'612.2
2018-Feb-17 08:31N 33°52' E 131°14'612.0
2018-Feb-17 08:00N 33°50' E 131°21'611.4
2018-Feb-17 07:30N 33°48' E 131°27'611.2
2018-Feb-17 07:00N 33°45' E 131°33'511.0
2018-Feb-17 06:30N 33°42' E 131°39'1210.1
2018-Feb-17 05:19N 33°33' E 131°48'410.2
2018-Feb-17 04:58N 33°29' E 131°48'810.4
2018-Feb-17 04:13N 33°22' E 131°44'411.8
2018-Feb-17 03:51N 33°18' E 131°41'2 0.6
2018-Feb-17 00:13N 33°16' E 131°41'1 3.6
2018-Feb-17 00:01N 33°17' E 131°41'4 6.5
2018-Feb-16 23:25N 33°21' E 131°42'2 2.9
2018-Feb-16 22:45N 33°22' E 131°43'0 0.0
2018-Feb-16 22:27N 33°22' E 131°43'0 0.0
2018-Feb-16 21:57N 33°22' E 131°43'0 0.0
2018-Feb-16 21:27N 33°22' E 131°43'0 0.0
2018-Feb-16 21:00N 33°22' E 131°43'0 0.0
2018-Feb-16 20:30N 33°22' E 131°43'0 0.0
2018-Feb-16 19:54N 33°22' E 131°43'0 0.0
2018-Feb-16 19:30N 33°22' E 131°43'1 2.4
2018-Feb-16 19:00N 33°23' E 131°44'713.7
2018-Feb-16 18:30N 33°27' E 131°51'713.9
2018-Feb-16 18:00N 33°31' E 131°58'1914.2
2018-Feb-16 16:39N 33°41' E 132°17'214.0
2018-Feb-16 16:30N 33°42' E 132°19'714.1
2018-Feb-16 16:00N 33°46' E 132°27'713.9
2018-Feb-16 15:29N 33°51' E 132°33'713.6
2018-Feb-16 15:01N 33°55' E 132°39'612.5
2018-Feb-16 14:30N 33°60' E 132°44'9111.6
2018-Feb-16 06:40N 34°29' E 134°29'612.9
2018-Feb-16 06:10N 34°33' E 134°34'212.8
2018-Feb-16 06:00N 34°35' E 134°36'612.4
2018-Feb-16 05:30N 34°41' E 134°37'612.3
2018-Feb-16 05:00N 34°47' E 134°40'0 0.1
2018-Feb-16 01:25N 34°47' E 134°40'1 1.3
2018-Feb-16 01:01N 34°46' E 134°39'3 2.0
2018-Feb-15 23:45N 34°44' E 134°39'2 7.7
2018-Feb-15 23:28N 34°42' E 134°39'612.3
2018-Feb-15 23:00N 34°36' E 134°39'611.7
2018-Feb-15 22:30N 34°30' E 134°39'611.6
2018-Feb-15 22:00N 34°24' E 134°38'612.5
2018-Feb-15 21:30N 34°18' E 134°38'714.4
2018-Feb-15 21:00N 34°12' E 134°42'612.9
2018-Feb-15 20:30N 34°07' E 134°47'612.3
2018-Feb-15 20:00N 34°02' E 134°51'612.3
2018-Feb-15 19:30N 33°57' E 134°56'612.0
2018-Feb-15 19:00N 33°53' E 135°01'102 7.8
2018-Feb-15 05:59N 34°42' E 136°49'612.1
2018-Feb-15 05:28N 34°48' E 136°46'612.0
2018-Feb-15 05:00N 34°53' E 136°46'611.7
2018-Feb-15 04:30N 34°59' E 136°48'2 3.1
2018-Feb-15 04:00N 34°59' E 136°50'0 0.0
2018-Feb-15 03:26N 34°59' E 136°50'0 0.0
2018-Feb-15 02:56N 34°59' E 136°50'0 0.0
2018-Feb-15 02:29N 34°59' E 136°50'0 0.0
2018-Feb-15 01:59N 34°59' E 136°50'0 0.0
2018-Feb-15 01:26N 34°59' E 136°50'0 0.0
2018-Feb-15 00:59N 34°59' E 136°50'0 0.0
2018-Feb-15 00:29N 34°59' E 136°50'1 2.3
2018-Feb-15 00:00N 34°59' E 136°49'611.8
2018-Feb-14 23:30N 34°53' E 136°47'612.5
2018-Feb-14 23:00N 34°47' E 136°48'612.8
2018-Feb-14 22:30N 34°41' E 136°52'  
Track history (hours):
 
Tides and Currents Weather Stations Pressure Air Temp Water Temp Dewpoint Dewpoint Depression Visibility Wind Speed Wind Dir Waves Ship Positions

Yamato Maru

Last reported at 2018-Feb-23 16:30 UTC. Time now 2018-Feb-23 20:25 UTC.
Position N 34°33' E 138°22'.

Length 72 m; draft 4.8 m.

Type: Ship. MMSI: 431000080.

Date/timePositionNaut miles runAvg speedWind from/ knotsBaromVisibWave heightAir tempDewpointWater temp
2018-Feb-23 16:30N 34°33' E 138°22'32411.5
2018-Feb-22 12:17N 33°13' E 132°04'813.1
2018-Feb-22 11:42N 33°19' E 131°58'313.5
2018-Feb-22 11:30N 33°21' E 131°56'712.8
2018-Feb-22 10:59N 33°26' E 131°51'713.5
2018-Feb-22 10:30N 33°32' E 131°49'713.7
2018-Feb-22 10:00N 33°38' E 131°44'713.7
2018-Feb-22 09:30N 33°42' E 131°38'714.0
2018-Feb-22 09:00N 33°45' E 131°30'713.9
2018-Feb-22 08:30N 33°48' E 131°22'713.9
2018-Feb-22 08:01N 33°50' E 131°15'713.9
2018-Feb-22 07:30N 33°54' E 131°07'713.5
2018-Feb-22 07:00N 33°58' E 131°01'510.7
2018-Feb-22 06:30N 33°55' E 130°56'5 9.2
2018-Feb-22 06:00N 33°57' E 130°51'612.8
2018-Feb-22 05:30N 33°58' E 130°43'713.4
2018-Feb-22 05:01N 33°57' E 130°35'612.5
2018-Feb-22 04:30N 33°55' E 130°28'712.9
2018-Feb-22 03:59N 33°49' E 130°24'612.6
2018-Feb-22 03:30N 33°45' E 130°19'510.6
2018-Feb-22 03:00N 33°39' E 130°18'511.0
2018-Feb-22 02:30N 33°36' E 130°23'0 0.3
2018-Feb-22 02:00N 33°36' E 130°23'0 0.0
2018-Feb-22 01:30N 33°36' E 130°23'0 0.0
2018-Feb-22 01:00N 33°36' E 130°23'0 0.0
2018-Feb-22 00:30N 33°36' E 130°23'0 0.0
2018-Feb-22 00:00N 33°36' E 130°23'0 0.0
2018-Feb-21 23:30N 33°36' E 130°23'1 2.1
2018-Feb-21 23:00N 33°37' E 130°23'1 2.2
2018-Feb-21 22:29N 33°37' E 130°21'0 0.0
2018-Feb-21 21:59N 33°37' E 130°21'0 0.0
2018-Feb-21 21:29N 33°37' E 130°21'0 0.0
2018-Feb-21 20:59N 33°37' E 130°21'0 0.0
2018-Feb-21 20:29N 33°37' E 130°21'0 0.0
2018-Feb-21 19:59N 33°37' E 130°21'0 0.0
2018-Feb-21 19:29N 33°37' E 130°21'0 0.0
2018-Feb-21 18:56N 33°37' E 130°21'0 0.0
2018-Feb-21 18:29N 33°37' E 130°21'0 0.0
2018-Feb-21 17:59N 33°37' E 130°21'0 0.1
2018-Feb-21 17:29N 33°37' E 130°21'0 0.0
2018-Feb-21 16:59N 33°37' E 130°21'0 0.0
2018-Feb-21 16:29N 33°37' E 130°21'0 0.0
2018-Feb-21 15:59N 33°37' E 130°21'0 0.1
2018-Feb-21 15:29N 33°37' E 130°21'0 0.0
2018-Feb-21 14:59N 33°37' E 130°21'0 0.1
2018-Feb-21 14:29N 33°37' E 130°21'0 0.0
2018-Feb-21 13:59N 33°37' E 130°21'0 0.1
2018-Feb-21 13:29N 33°37' E 130°21'3 5.8
2018-Feb-21 13:01N 33°39' E 130°19'510.2
2018-Feb-21 12:30N 33°43' E 130°16'712.5
2018-Feb-21 11:56N 33°49' E 130°20'512.7
2018-Feb-21 11:31N 33°54' E 130°23'611.3
2018-Feb-21 11:01N 33°57' E 130°29'612.2
2018-Feb-21 10:30N 33°57' E 130°36'612.0
2018-Feb-21 10:00N 33°58' E 130°43'611.8
2018-Feb-21 09:30N 33°58' E 130°50'5 9.8
2018-Feb-21 09:00N 33°55' E 130°55'4 8.5
2018-Feb-21 08:30N 33°58' E 130°58'5 9.7
2018-Feb-21 08:01N 33°57' E 131°04'611.2
2018-Feb-21 07:30N 33°54' E 131°09'611.3
2018-Feb-21 07:01N 33°52' E 131°15'611.5
2018-Feb-21 06:30N 33°49' E 131°22'611.6
2018-Feb-21 06:01N 33°47' E 131°28'611.5
2018-Feb-21 05:30N 33°44' E 131°34'510.8
2018-Feb-21 05:00N 33°41' E 131°40'611.1
2018-Feb-21 04:26N 33°37' E 131°45'511.0
2018-Feb-21 04:00N 33°33' E 131°47'1112.2
2018-Feb-21 03:07N 33°22' E 131°43'212.4
2018-Feb-21 03:00N 33°21' E 131°43'5 1.5
2018-Feb-20 23:57N 33°16' E 131°41'4 7.5
2018-Feb-20 23:27N 33°20' E 131°42'4 8.0
2018-Feb-20 23:00N 33°23' E 131°43'0 0.0
2018-Feb-20 21:00N 33°23' E 131°43'0 0.0
2018-Feb-20 20:18N 33°23' E 131°43'0 0.0
2018-Feb-20 19:54N 33°23' E 131°43'0 0.0
2018-Feb-20 19:18N 33°23' E 131°43'0 0.0
2018-Feb-20 19:00N 33°23' E 131°43'0 0.0
2018-Feb-20 18:30N 33°23' E 131°43'0 0.0
2018-Feb-20 16:39N 33°23' E 131°43'0 2.4
2018-Feb-20 16:28N 33°24' E 131°44'712.6
2018-Feb-20 15:57N 33°30' E 131°47'613.3
2018-Feb-20 15:30N 33°35' E 131°47'713.8
2018-Feb-20 15:00N 33°40' E 131°41'713.3
2018-Feb-20 14:30N 33°43' E 131°34'612.8
2018-Feb-20 14:00N 33°46' E 131°27'613.0
2018-Feb-20 13:30N 33°49' E 131°20'612.6
2018-Feb-20 13:01N 33°51' E 131°13'612.6
2018-Feb-20 12:30N 33°54' E 131°06'612.7
2018-Feb-20 12:00N 33°58' E 131°00'613.0
2018-Feb-20 11:30N 33°54' E 130°55'613.0
2018-Feb-20 11:00N 33°58' E 130°48'713.1
2018-Feb-20 10:30N 33°57' E 130°40'713.2
2018-Feb-20 10:00N 33°56' E 130°32'510.6
2018-Feb-20 09:30N 33°53' E 130°27'613.0
2018-Feb-20 09:00N 33°49' E 130°21'713.0
2018-Feb-20 08:30N 33°44' E 130°15'18 0.6
2018-Feb-19 03:31N 33°33' E 129°58'18 0.5
2018-Feb-17 13:42N 33°46' E 130°12'211.9
2018-Feb-17 13:30N 33°48' E 130°14'712.0
2018-Feb-17 12:56N 33°53' E 130°20'512.1
2018-Feb-17 12:29N 33°57' E 130°24'612.0
2018-Feb-17 12:01N 33°57' E 130°31'612.3
2018-Feb-17 11:31N 33°58' E 130°39'612.2
2018-Feb-17 11:01N 33°58' E 130°46'611.1
2018-Feb-17 10:31N 33°56' E 130°52'3 6.8
2018-Feb-17 10:01N 33°57' E 130°56'5 9.3
2018-Feb-17 09:31N 33°58' E 131°02'611.8
2018-Feb-17 09:01N 33°55' E 131°08'612.2
2018-Feb-17 08:31N 33°52' E 131°14'612.0
2018-Feb-17 08:00N 33°50' E 131°21'611.4
2018-Feb-17 07:30N 33°48' E 131°27'611.2
2018-Feb-17 07:00N 33°45' E 131°33'511.0
2018-Feb-17 06:30N 33°42' E 131°39'1210.1
2018-Feb-17 05:19N 33°33' E 131°48'410.2
2018-Feb-17 04:58N 33°29' E 131°48'810.4
2018-Feb-17 04:13N 33°22' E 131°44'411.8
2018-Feb-17 03:51N 33°18' E 131°41'2 0.6
2018-Feb-17 00:13N 33°16' E 131°41'1 3.6
2018-Feb-17 00:01N 33°17' E 131°41'4 6.5
2018-Feb-16 23:25N 33°21' E 131°42'2 2.9
2018-Feb-16 22:45N 33°22' E 131°43'0 0.0
2018-Feb-16 22:27N 33°22' E 131°43'0 0.0
2018-Feb-16 21:57N 33°22' E 131°43'0 0.0
2018-Feb-16 21:27N 33°22' E 131°43'0 0.0
2018-Feb-16 21:00N 33°22' E 131°43'0 0.0
2018-Feb-16 20:30N 33°22' E 131°43'0 0.0
2018-Feb-16 19:54N 33°22' E 131°43'0 0.0
2018-Feb-16 19:30N 33°22' E 131°43'1 2.4
2018-Feb-16 19:00N 33°23' E 131°44'713.7
2018-Feb-16 18:30N 33°27' E 131°51'713.9
2018-Feb-16 18:00N 33°31' E 131°58'1914.2
2018-Feb-16 16:39N 33°41' E 132°17'214.0
2018-Feb-16 16:30N 33°42' E 132°19'714.1
2018-Feb-16 16:00N 33°46' E 132°27'713.9
2018-Feb-16 15:29N 33°51' E 132°33'713.6
2018-Feb-16 15:01N 33°55' E 132°39'612.5
2018-Feb-16 14:30N 33°60' E 132°44'9111.6
2018-Feb-16 06:40N 34°29' E 134°29'612.9
2018-Feb-16 06:10N 34°33' E 134°34'212.8
2018-Feb-16 06:00N 34°35' E 134°36'612.4
2018-Feb-16 05:30N 34°41' E 134°37'612.3
2018-Feb-16 05:00N 34°47' E 134°40'0 0.1
2018-Feb-16 01:25N 34°47' E 134°40'1 1.3
2018-Feb-16 01:01N 34°46' E 134°39'3 2.0
2018-Feb-15 23:45N 34°44' E 134°39'2 7.7
2018-Feb-15 23:28N 34°42' E 134°39'612.3
2018-Feb-15 23:00N 34°36' E 134°39'611.7
2018-Feb-15 22:30N 34°30' E 134°39'611.6
2018-Feb-15 22:00N 34°24' E 134°38'612.5
2018-Feb-15 21:30N 34°18' E 134°38'714.4
2018-Feb-15 21:00N 34°12' E 134°42'612.9
2018-Feb-15 20:30N 34°07' E 134°47'612.3
2018-Feb-15 20:00N 34°02' E 134°51'612.3
2018-Feb-15 19:30N 33°57' E 134°56'612.0
2018-Feb-15 19:00N 33°53' E 135°01'102 7.8
2018-Feb-15 05:59N 34°42' E 136°49'612.1
2018-Feb-15 05:28N 34°48' E 136°46'612.0
2018-Feb-15 05:00N 34°53' E 136°46'611.7
2018-Feb-15 04:30N 34°59' E 136°48'2 3.1
2018-Feb-15 04:00N 34°59' E 136°50'0 0.0
2018-Feb-15 03:26N 34°59' E 136°50'0 0.0
2018-Feb-15 02:56N 34°59' E 136°50'0 0.0
2018-Feb-15 02:29N 34°59' E 136°50'0 0.0
2018-Feb-15 01:59N 34°59' E 136°50'0 0.0
2018-Feb-15 01:26N 34°59' E 136°50'0 0.0
2018-Feb-15 00:59N 34°59' E 136°50'0 0.0
2018-Feb-15 00:29N 34°59' E 136°50'1 2.3
2018-Feb-15 00:00N 34°59' E 136°49'611.8
2018-Feb-14 23:30N 34°53' E 136°47'612.5
2018-Feb-14 23:00N 34°47' E 136°48'612.8
2018-Feb-14 22:30N 34°41' E 136°52'  

Dump ship's entire track history